createdAt,value
2022-08-03T01:53:15.637Z,3.70
2022-08-03T01:55:44.898Z,2.37
2022-08-03T01:58:15.520Z,3.67
2022-08-03T02:00:43.858Z,8.33
2022-08-03T02:03:21.322Z,4.77
2022-08-03T02:05:57.203Z,3.53
2022-08-03T02:08:33.944Z,3.80
2022-08-03T02:11:02.605Z,3.20
2022-08-03T02:13:30.747Z,5.70
2022-08-03T02:15:58.662Z,4.00
2022-08-03T02:18:26.614Z,5.83
2022-08-03T02:20:54.131Z,2.83
2022-08-03T02:23:21.065Z,3.33
2022-08-03T02:25:53.998Z,3.90
2022-08-03T02:28:22.444Z,2.93
2022-08-03T02:30:54.081Z,2.57
2022-08-03T02:33:27.907Z,5.30
2022-08-03T02:35:56.538Z,4.87
2022-08-03T02:38:33.105Z,3.67
2022-08-03T02:41:03.949Z,3.50
2022-08-03T02:44:30.686Z,4.60
2022-08-03T02:47:54.967Z,4.33
2022-08-03T02:50:23.879Z,3.87
2022-08-03T02:52:52.232Z,3.27
2022-08-03T02:56:18.919Z,3.40
2022-08-03T02:58:49.973Z,4.67
2022-08-03T03:01:20.771Z,3.53
2022-08-03T03:03:49.262Z,3.83
2022-08-03T03:06:17.952Z,4.33
2022-08-03T03:08:47.285Z,5.13
2022-08-03T03:11:15.916Z,6.83
2022-08-03T03:13:45.119Z,3.70
2022-08-03T03:16:13.962Z,4.23
2022-08-03T03:18:43.246Z,3.67
2022-08-03T03:21:11.036Z,5.00
2022-08-03T03:23:39.625Z,4.07
2022-08-03T03:26:07.158Z,3.63
2022-08-03T03:28:37.042Z,4.63
2022-08-03T03:31:06.555Z,4.07
2022-08-03T03:33:37.441Z,5.83
2022-08-03T03:36:06.552Z,3.73
2022-08-03T03:38:34.308Z,4.00
2022-08-03T03:41:01.331Z,4.40
2022-08-03T03:43:29.521Z,4.57
2022-08-03T03:45:58.438Z,3.67
2022-08-03T03:48:26.391Z,5.67
2022-08-03T03:50:54.043Z,5.97
2022-08-03T03:53:20.904Z,5.43
2022-08-03T03:55:59.155Z,4.37
2022-08-03T03:58:31.279Z,3.50
2022-08-03T04:00:58.059Z,3.57
2022-08-03T04:03:24.778Z,3.83
2022-08-03T04:06:10.243Z,3.43
2022-08-03T04:08:55.831Z,8.70
2022-08-03T04:11:32.248Z,4.07
2022-08-03T04:14:25.936Z,2.90
2022-08-03T04:16:58.754Z,5.43
2022-08-03T04:19:32.398Z,2.77
2022-08-03T04:22:03.059Z,2.43
2022-08-03T04:24:35.287Z,4.43
2022-08-03T04:27:05.760Z,2.65
2022-08-03T04:29:35.537Z,3.50
2022-08-03T04:32:07.198Z,3.80
2022-08-03T04:34:34.004Z,4.73
2022-08-03T04:37:05.906Z,2.73
2022-08-03T04:40:32.593Z,6.60
2022-08-03T04:47:42.181Z,5.20
2022-08-03T04:50:12.949Z,3.23
2022-08-03T04:57:25.346Z,4.87
2022-08-03T05:00:31.205Z,5.57
2022-08-03T05:03:20.517Z,3.23
2022-08-03T05:06:01.818Z,7.10
2022-08-03T05:08:46.504Z,8.03
2022-08-03T05:11:29.232Z,2.63
2022-08-03T05:13:56.247Z,3.27
2022-08-03T05:16:23.300Z,5.03
2022-08-03T05:19:49.973Z,4.33
2022-08-03T05:22:17.222Z,5.97
2022-08-03T05:29:37.916Z,4.68
2022-08-03T05:32:24.591Z,7.07
2022-08-03T05:34:51.459Z,4.53
2022-08-03T05:37:18.158Z,6.57
2022-08-03T05:39:44.861Z,7.77
2022-08-03T05:42:12.364Z,6.03
2022-08-03T05:44:39.110Z,7.73
2022-08-03T05:47:06.215Z,5.80
2022-08-03T05:50:34.798Z,5.80
2022-08-03T05:53:37.067Z,6.50
2022-08-03T05:56:43.176Z,4.93
2022-08-03T05:59:38.128Z,5.13
2022-08-03T06:02:05.761Z,7.43
2022-08-03T06:04:32.469Z,6.30
2022-08-03T06:06:59.233Z,4.40
2022-08-03T06:10:33.665Z,5.60
2022-08-03T06:12:14.256Z,6.93
2022-08-03T06:19:09.514Z,6.53
2022-08-03T06:21:59.997Z,6.68
2022-08-03T06:24:27.516Z,6.17
2022-08-03T06:27:56.260Z,7.43
2022-08-03T06:30:23.066Z,9.97
2022-08-03T06:32:51.703Z,7.70
2022-08-03T06:35:19.685Z,5.20
2022-08-03T06:37:49.001Z,6.83
2022-08-03T06:40:24.308Z,2.50
2022-08-03T06:42:51.532Z,9.93
2022-08-03T06:50:14.928Z,5.10
2022-08-03T06:53:44.467Z,4.57
2022-08-03T06:57:11.136Z,8.90
2022-08-03T07:00:37.608Z,4.80
2022-08-03T07:07:56.703Z,7.00
2022-08-03T07:11:23.134Z,7.67
2022-08-03T07:18:41.165Z,5.67
2022-08-03T07:22:07.616Z,6.23
2022-08-03T07:29:25.826Z,4.77
2022-08-03T07:32:52.300Z,9.53
2022-08-03T07:36:18.874Z,3.23
2022-08-03T07:39:45.337Z,8.80
2022-08-03T07:46:04.100Z,6.50
2022-08-03T07:48:31.614Z,6.07
2022-08-03T07:50:58.314Z,8.30
2022-08-03T07:53:25.164Z,7.90
2022-08-03T07:55:51.916Z,5.03
2022-08-03T07:58:23.734Z,4.77
2022-08-03T08:00:53.389Z,4.07
2022-08-03T08:03:22.020Z,4.03
2022-08-03T08:05:49.179Z,5.43
2022-08-03T08:08:16.252Z,5.37
2022-08-03T08:10:43.087Z,6.90
2022-08-03T08:13:25.403Z,5.20
2022-08-03T08:15:52.374Z,7.23
2022-08-03T08:18:19.084Z,6.07
2022-08-03T08:20:45.961Z,6.37
2022-08-03T08:23:37.932Z,5.77
2022-08-03T08:25:59.517Z,4.57
2022-08-03T08:28:31.930Z,7.43
2022-08-03T08:30:59.861Z,6.43
2022-08-03T08:33:37.405Z,8.70
2022-08-03T08:36:14.772Z,5.15
2022-08-03T08:38:42.920Z,3.53
2022-08-03T08:41:11.446Z,4.03
2022-08-03T08:43:38.330Z,2.80
2022-08-03T08:46:08.689Z,5.07
2022-08-03T08:48:40.620Z,5.00
2022-08-03T08:51:09.866Z,4.95
2022-08-03T08:53:37.619Z,9.17
2022-08-03T08:56:05.688Z,3.50
2022-08-03T08:58:38.777Z,4.97
2022-08-03T09:01:05.884Z,5.40
2022-08-03T09:03:35.476Z,6.47
2022-08-03T09:06:03.155Z,3.07
2022-08-03T09:08:30.867Z,6.17
2022-08-03T09:10:58.273Z,3.17
2022-08-03T09:13:25.687Z,6.00
2022-08-03T09:16:15.057Z,3.40
2022-08-03T09:18:43.877Z,5.67
2022-08-03T09:21:31.275Z,3.70
2022-08-03T09:24:05.640Z,4.53
2022-08-03T09:26:37.905Z,4.80
2022-08-03T09:29:14.505Z,6.00
2022-08-03T09:31:44.929Z,2.73
2022-08-03T09:34:16.918Z,3.93
2022-08-03T09:36:51.668Z,3.60
2022-08-03T09:39:19.324Z,3.60
2022-08-03T09:42:05.666Z,2.00
2022-08-03T09:44:44.436Z,5.07
2022-08-03T09:47:12.576Z,1.67
2022-08-03T09:49:41.665Z,3.70
2022-08-03T09:52:37.909Z,4.63
2022-08-03T09:56:35.255Z,3.53
2022-08-03T09:58:08.602Z,1.93
2022-08-03T10:01:04.354Z,1.83
2022-08-03T10:04:03.138Z,2.20
2022-08-03T10:06:29.022Z,2.73
2022-08-03T10:09:07.395Z,3.43
2022-08-03T10:11:40.377Z,3.53
2022-08-03T10:14:11.089Z,3.37
2022-08-03T10:16:40.059Z,6.03
2022-08-03T10:19:09.834Z,2.87
2022-08-03T10:21:39.099Z,3.83
2022-08-03T10:24:08.752Z,2.73
2022-08-03T10:26:39.609Z,2.87
2022-08-03T10:29:24.961Z,3.03
2022-08-03T10:31:58.159Z,2.30
2022-08-03T10:34:34.087Z,2.17
2022-08-03T10:37:05.570Z,1.60
2022-08-03T10:39:32.451Z,0.90
2022-08-03T10:42:00.004Z,4.43
2022-08-03T10:44:34.129Z,3.47
2022-08-03T10:47:01.517Z,3.92
2022-08-03T10:49:34.812Z,2.97
2022-08-03T10:52:13.225Z,5.10
2022-08-03T10:55:10.804Z,2.17
2022-08-03T10:57:58.506Z,4.40
2022-08-03T11:00:27.936Z,2.80
2022-08-03T11:03:12.899Z,2.83
2022-08-03T11:05:48.329Z,3.73
2022-08-03T11:08:23.996Z,3.17
2022-08-03T11:10:53.325Z,3.63
2022-08-03T11:13:22.540Z,2.60
2022-08-03T11:15:52.790Z,2.20
2022-08-03T11:18:27.217Z,2.03
2022-08-03T11:21:00.349Z,3.50
2022-08-03T11:24:02.534Z,0.70
2022-08-03T11:26:32.251Z,1.90
2022-08-03T11:29:31.243Z,1.27
2022-08-03T11:31:58.403Z,1.37
2022-08-03T11:34:25.599Z,1.23
2022-08-03T11:37:22.817Z,1.37
2022-08-03T11:39:53.109Z,2.73
2022-08-03T11:42:42.879Z,1.55
2022-08-03T11:46:09.389Z,1.27
2022-08-03T11:49:42.204Z,1.00
2022-08-03T11:53:19.264Z,1.63
2022-08-03T11:56:45.915Z,1.70
2022-08-03T12:00:12.388Z,1.25
2022-08-03T12:03:41.690Z,1.35
2022-08-03T12:07:14.135Z,1.23
2022-08-03T12:15:06.760Z,2.75
2022-08-03T12:18:33.241Z,1.13
2022-08-03T12:22:05.842Z,1.10
2022-08-03T12:25:39.413Z,2.25
2022-08-03T12:33:10.009Z,2.15
2022-08-03T12:36:09.941Z,0.68
2022-08-03T12:38:40.181Z,1.20
2022-08-03T12:41:13.893Z,0.80
2022-08-03T12:43:50.319Z,0.93
2022-08-03T12:46:19.411Z,1.25
2022-08-03T12:50:04.477Z,0.80
2022-08-03T12:56:24.163Z,0.70
2022-08-03T12:58:51.349Z,2.55
2022-08-03T13:01:18.085Z,1.27
2022-08-03T13:04:46.426Z,1.50
2022-08-03T13:08:12.937Z,1.95
2022-08-03T13:14:31.177Z,1.27
2022-08-03T13:16:58.131Z,2.15
2022-08-03T13:19:24.862Z,0.82
2022-08-03T13:21:53.726Z,0.95
2022-08-03T13:24:32.847Z,0.57
2022-08-03T13:27:00.540Z,1.13
2022-08-03T13:29:27.608Z,1.67
2022-08-03T13:31:54.472Z,2.92
2022-08-03T13:34:23.888Z,1.02
2022-08-03T13:37:08.403Z,1.17
2022-08-03T13:39:58.433Z,2.03
2022-08-03T13:42:22.865Z,1.63
2022-08-03T13:44:49.833Z,1.48
2022-08-03T13:47:16.584Z,4.00
2022-08-03T13:49:54.148Z,1.23
2022-08-03T13:52:33.838Z,1.05
2022-08-03T13:56:00.337Z,1.50
2022-08-03T13:59:27.140Z,0.80
2022-08-03T14:05:36.295Z,1.00
2022-08-03T14:08:05.315Z,2.25
2022-08-03T14:12:07.249Z,1.27
2022-08-03T14:14:38.277Z,3.03
2022-08-03T14:22:03.712Z,1.95
2022-08-03T14:25:43.497Z,1.08
2022-08-03T14:33:08.975Z,1.50
2022-08-03T14:36:35.421Z,1.80
2022-08-03T14:44:01.277Z,1.65
2022-08-03T14:47:28.759Z,1.13
2022-08-03T14:50:55.350Z,1.30
2022-08-03T14:54:21.893Z,0.82
2022-08-03T15:02:04.568Z,1.98
2022-08-03T15:04:27.911Z,1.13
2022-08-03T15:06:54.725Z,0.90
2022-08-03T15:09:23.973Z,2.08
2022-08-03T15:11:51.043Z,1.45
2022-08-03T15:14:19.405Z,2.53
2022-08-03T15:16:55.191Z,1.95
2022-08-03T15:20:03.191Z,1.92
2022-08-03T15:22:09.080Z,1.63
2022-08-03T15:24:35.913Z,1.25
2022-08-03T15:28:03.808Z,1.08
2022-08-03T15:30:35.267Z,1.05
2022-08-03T15:33:02.302Z,1.83
2022-08-03T15:35:29.150Z,1.30
2022-08-03T15:38:55.963Z,1.15
2022-08-03T15:41:29.003Z,0.69
2022-08-03T15:44:55.543Z,1.40
2022-08-03T15:47:24.053Z,3.00
2022-08-03T15:49:50.808Z,3.28
2022-08-03T15:52:17.692Z,1.95
2022-08-03T15:54:44.474Z,1.27
2022-08-03T15:57:11.341Z,0.95
2022-08-03T15:59:38.046Z,1.02
2022-08-03T16:02:04.971Z,1.42
2022-08-03T16:04:31.750Z,1.48
2022-08-03T16:06:58.589Z,1.65
2022-08-03T16:09:42.535Z,1.35
2022-08-03T16:12:11.815Z,3.55
2022-08-03T16:17:19.700Z,0.70
2022-08-03T16:19:46.823Z,3.95
2022-08-03T16:22:14.484Z,1.05
2022-08-03T16:24:41.678Z,1.48
2022-08-03T16:27:36.720Z,3.42
2022-08-03T16:29:55.943Z,2.28
2022-08-03T16:32:23.881Z,2.47
2022-08-03T16:39:33.230Z,2.40
2022-08-03T16:42:59.742Z,1.48
2022-08-03T16:46:26.563Z,1.65
2022-08-03T16:48:53.356Z,1.17
2022-08-03T16:52:20.004Z,3.47
2022-08-03T16:54:50.591Z,3.50
2022-08-03T16:57:59.684Z,4.28
2022-08-03T17:00:12.480Z,4.20
2022-08-03T17:03:00.744Z,4.13
2022-08-03T17:05:43.906Z,8.15
2022-08-03T17:09:14.669Z,3.47
2022-08-03T17:12:22.359Z,2.92
2022-08-03T17:15:21.628Z,1.08
2022-08-03T17:22:51.636Z,2.67
2022-08-03T17:26:01.540Z,2.85
2022-08-03T17:28:48.124Z,2.40
2022-08-03T17:31:23.107Z,1.42
2022-08-03T17:34:00.726Z,2.30
2022-08-03T17:37:03.412Z,1.42
2022-08-03T17:44:17.082Z,3.86
2022-08-03T17:46:12.117Z,1.77
2022-08-03T17:48:56.943Z,2.80
2022-08-03T17:51:23.712Z,2.55
2022-08-03T17:54:06.248Z,3.60
2022-08-03T17:57:28.075Z,2.70
2022-08-03T18:01:57.099Z,1.97
2022-08-03T18:04:03.076Z,2.33
2022-08-03T18:06:56.805Z,2.70
2022-08-03T18:10:06.764Z,2.50
2022-08-03T18:12:18.791Z,4.17
2022-08-03T18:15:00.821Z,2.27
2022-08-03T18:18:01.965Z,3.03
2022-08-03T18:20:32.369Z,5.33
2022-08-03T18:27:56.393Z,1.57
2022-08-03T18:31:33.254Z,1.17
2022-08-03T18:39:03.154Z,3.63
2022-08-03T18:42:32.234Z,2.93
2022-08-03T18:49:46.176Z,2.70
2022-08-03T18:53:19.602Z,2.33
2022-08-03T18:56:29.585Z,3.63
2022-08-03T19:03:46.415Z,4.77
2022-08-03T19:07:13.099Z,3.40
2022-08-03T19:10:19.750Z,1.57
2022-08-03T19:14:11.476Z,1.60
2022-08-03T19:17:38.468Z,2.13
2022-08-03T19:21:15.504Z,0.67
2022-08-03T19:24:42.460Z,0.73
2022-08-03T19:37:40.089Z,1.10
2022-08-03T19:43:57.705Z,2.67
2022-08-03T19:46:31.506Z,0.60
2022-08-03T19:49:14.973Z,0.60
2022-08-03T19:51:59.438Z,1.30
2022-08-03T19:55:29.037Z,0.77
2022-08-03T19:58:58.771Z,1.53
2022-08-03T20:01:26.418Z,2.93
2022-08-03T20:03:55.178Z,2.07
2022-08-03T20:06:23.558Z,1.40
2022-08-03T20:12:41.732Z,1.03
2022-08-03T20:16:08.378Z,1.90
2022-08-03T20:18:56.052Z,2.43
2022-08-03T20:21:25.015Z,1.47
2022-08-03T20:24:54.451Z,2.63
2022-08-03T20:28:26.621Z,5.23
2022-08-03T20:31:53.579Z,4.00
2022-08-03T20:38:18.960Z,1.23
2022-08-03T20:40:47.135Z,0.90
2022-08-03T20:43:14.387Z,2.63
2022-08-03T20:45:59.073Z,2.87
2022-08-03T20:49:27.882Z,1.27
2022-08-03T20:52:54.596Z,3.77
2022-08-03T20:55:47.993Z,1.90
2022-08-03T20:58:24.412Z,0.83
2022-08-03T21:00:53.769Z,1.53
2022-08-03T21:04:21.028Z,1.20
2022-08-03T21:08:04.837Z,0.87
2022-08-03T21:10:40.646Z,2.70
2022-08-03T21:13:23.594Z,3.03
2022-08-03T21:20:16.230Z,3.40
2022-08-03T21:22:47.134Z,2.70
2022-08-03T21:25:16.063Z,1.03
2022-08-03T21:27:43.384Z,1.13
2022-08-03T21:30:11.271Z,1.23
2022-08-03T21:32:41.366Z,0.70
2022-08-03T21:35:10.530Z,2.23
2022-08-03T21:38:29.656Z,0.50
2022-08-03T21:40:57.282Z,5.00
2022-08-03T21:48:17.968Z,1.57
2022-08-03T21:51:44.650Z,1.40
2022-08-03T21:58:53.249Z,0.80
2022-08-03T22:02:24.406Z,1.47
2022-08-03T22:05:51.474Z,1.20
2022-08-03T22:09:17.946Z,2.40
2022-08-03T22:12:44.679Z,0.63
2022-08-03T22:16:11.209Z,1.93
2022-08-03T22:23:33.279Z,1.43
2022-08-03T22:27:02.549Z,0.83
2022-08-03T22:30:29.237Z,0.97
2022-08-03T22:33:55.819Z,3.03
2022-08-03T22:41:11.822Z,1.47
2022-08-03T22:47:23.361Z,1.90
2022-08-03T22:50:50.161Z,2.80
2022-08-03T23:00:48.780Z,3.83
2022-08-03T23:08:09.453Z,2.07
2022-08-03T23:11:35.923Z,7.37
2022-08-03T23:18:56.448Z,3.53
2022-08-03T23:21:52.872Z,2.40
2022-08-03T23:24:30.254Z,2.63
2022-08-03T23:31:50.708Z,3.70
2022-08-03T23:35:15.900Z,1.60
2022-08-03T23:42:25.352Z,6.03
2022-08-03T23:45:51.803Z,3.90
2022-08-03T23:49:18.512Z,3.27
2022-08-03T23:52:48.068Z,4.50
2022-08-03T23:55:40.486Z,1.80
2022-08-03T23:58:42.136Z,4.20
